Flip — WI7115 — position and weather

sailwx.info

Track history (hours):
 
Tides and Currents Weather Stations Pressure Air Temp Water Temp Dewpoint Dewpoint Depression Visibility Wind Speed Wind Dir Waves Ship Positions

Oceanographic research ship Flip (USA)

Detailed information on ship capabilities available from University of Delaware's Ocean Information Center.

Owner: REGENTS OF THE UNIVERSITY OF CALIFORNIA, OAKLAND, CA. More information available from US FCC via Universal Licensing System and Coast Guard Vessel Documentation Center.

Last reported at 2017-Mar-24 20:07 UTC. Time now 2017-Mar-26 01:46 UTC.
Position N 33°10' W 118°56'.

Length 124 m; draft 14 m.

Type: Military. MMSI: 338040561.

Date/timePositionNaut miles runAvg speedWind from/ knotsBaromVisibWave heightAir tempDewpointWater temp
2017-Mar-24 20:07N 33°10' W 118°56'0 0.0
2017-Mar-24 19:22N 33°10' W 118°56'  
2017-Mar-21 18:16N 33°10' W 118°56'0 0.0
2017-Mar-21 17:28N 33°10' W 118°56'0 0.0
2017-Mar-21 16:33N 33°10' W 118°56'0 0.0
2017-Mar-20 20:33N 33°10' W 118°56'0 0.0
2017-Mar-19 18:25N 33°10' W 118°56'0 0.0
2017-Mar-19 17:31N 33°10' W 118°56'  
2017-Mar-17 04:28N 33°10' W 118°56'0 0.0
2017-Mar-17 03:19N 33°10' W 118°56'0 0.0
2017-Mar-17 02:31N 33°10' W 118°56'0 0.0
2017-Mar-17 01:33N 33°10' W 118°56'0 0.0
2017-Mar-17 00:30N 33°10' W 118°56'0 0.0
2017-Mar-16 23:32N 33°10' W 118°56'0 0.0
2017-Mar-16 22:32N 33°10' W 118°56'0 0.0
2017-Mar-16 21:29N 33°10' W 118°56'0 0.0
2017-Mar-16 20:26N 33°10' W 118°56'0 0.1
2017-Mar-16 19:32N 33°10' W 118°56'0 0.1
2017-Mar-16 18:32N 33°10' W 118°56'0 0.1
2017-Mar-16 17:32N 33°10' W 118°56'0 0.0
2017-Mar-16 16:33N 33°10' W 118°56'1 0.5
2017-Mar-16 15:33N 33°10' W 118°57'1 1.2
2017-Mar-16 14:28N 33°11' W 118°58'2 1.8
2017-Mar-16 13:31N 33°10' W 118°56'6 5.6
2017-Mar-16 12:31N 33°09' W 118°50'6 5.5
2017-Mar-16 11:30N 33°08' W 118°43'5 5.3
2017-Mar-16 10:33N 33°07' W 118°37'6 5.5
2017-Mar-16 09:33N 33°06' W 118°31'6 5.6
2017-Mar-16 08:33N 33°04' W 118°24'6 5.6
2017-Mar-16 07:33N 33°01' W 118°19'6 5.8
2017-Mar-16 06:33N 32°58' W 118°13'6 6.2
2017-Mar-16 05:33N 32°56' W 118°06'6 6.2
2017-Mar-16 04:33N 32°53' W 117°59'6 6.0
2017-Mar-16 03:33N 32°51' W 117°53'6 6.2
2017-Mar-16 02:33N 32°48' W 117°46'6 6.0
2017-Mar-16 01:34N 32°46' W 117°39'6 6.0
2017-Mar-16 00:33N 32°43' W 117°33'6 6.1
2017-Mar-15 23:33N 32°41' W 117°26'6 6.1
2017-Mar-15 22:33N 32°39' W 117°20'  
Track history (hours):
 
Tides and Currents Weather Stations Pressure Air Temp Water Temp Dewpoint Dewpoint Depression Visibility Wind Speed Wind Dir Waves Ship Positions

Oceanographic research ship Flip (USA)

Detailed information on ship capabilities available from University of Delaware's Ocean Information Center.

Owner: REGENTS OF THE UNIVERSITY OF CALIFORNIA, OAKLAND, CA. More information available from US FCC via Universal Licensing System and Coast Guard Vessel Documentation Center.

Last reported at 2017-Mar-24 20:07 UTC. Time now 2017-Mar-26 01:46 UTC.
Position N 33°10' W 118°56'.

Length 124 m; draft 14 m.

Type: Military. MMSI: 338040561.

Date/timePositionNaut miles runAvg speedWind from/ knotsBaromVisibWave heightAir tempDewpointWater temp
2017-Mar-24 20:07N 33°10' W 118°56'0 0.0
2017-Mar-24 19:22N 33°10' W 118°56'  
2017-Mar-21 18:16N 33°10' W 118°56'0 0.0
2017-Mar-21 17:28N 33°10' W 118°56'0 0.0
2017-Mar-21 16:33N 33°10' W 118°56'0 0.0
2017-Mar-20 20:33N 33°10' W 118°56'0 0.0
2017-Mar-19 18:25N 33°10' W 118°56'0 0.0
2017-Mar-19 17:31N 33°10' W 118°56'  
2017-Mar-17 04:28N 33°10' W 118°56'0 0.0
2017-Mar-17 03:19N 33°10' W 118°56'0 0.0
2017-Mar-17 02:31N 33°10' W 118°56'0 0.0
2017-Mar-17 01:33N 33°10' W 118°56'0 0.0
2017-Mar-17 00:30N 33°10' W 118°56'0 0.0
2017-Mar-16 23:32N 33°10' W 118°56'0 0.0
2017-Mar-16 22:32N 33°10' W 118°56'0 0.0
2017-Mar-16 21:29N 33°10' W 118°56'0 0.0
2017-Mar-16 20:26N 33°10' W 118°56'0 0.1
2017-Mar-16 19:32N 33°10' W 118°56'0 0.1
2017-Mar-16 18:32N 33°10' W 118°56'0 0.1
2017-Mar-16 17:32N 33°10' W 118°56'0 0.0
2017-Mar-16 16:33N 33°10' W 118°56'1 0.5
2017-Mar-16 15:33N 33°10' W 118°57'1 1.2
2017-Mar-16 14:28N 33°11' W 118°58'2 1.8
2017-Mar-16 13:31N 33°10' W 118°56'6 5.6
2017-Mar-16 12:31N 33°09' W 118°50'6 5.5
2017-Mar-16 11:30N 33°08' W 118°43'5 5.3
2017-Mar-16 10:33N 33°07' W 118°37'6 5.5
2017-Mar-16 09:33N 33°06' W 118°31'6 5.6
2017-Mar-16 08:33N 33°04' W 118°24'6 5.6
2017-Mar-16 07:33N 33°01' W 118°19'6 5.8
2017-Mar-16 06:33N 32°58' W 118°13'6 6.2
2017-Mar-16 05:33N 32°56' W 118°06'6 6.2
2017-Mar-16 04:33N 32°53' W 117°59'6 6.0
2017-Mar-16 03:33N 32°51' W 117°53'6 6.2
2017-Mar-16 02:33N 32°48' W 117°46'6 6.0
2017-Mar-16 01:34N 32°46' W 117°39'6 6.0
2017-Mar-16 00:33N 32°43' W 117°33'6 6.1
2017-Mar-15 23:33N 32°41' W 117°26'6 6.1
2017-Mar-15 22:33N 32°39' W 117°20'  

Dump ship's entire track history